Time;durP1;ratioP1;P1;durP2;ratioP2;P2;SDS_P1;SDS_P2;PMS_P1;PMS_P2;Temp;Humidity;BMP_temperature;BMP_pressure;BME280_temperature;BME280_humidity;BME280_pressure;Samples;Min_cycle;Max_cycle;Signal;HPM_P1;HPM_P2
2022/11/22 00:00:20;;;;;;;16.67;7.03;;;;;;;5.74;100.00;98978.25;5262409;28;20064;-73
2022/11/22 00:02:52;;;;;;;13.07;7.07;;;;;;;5.75;100.00;98977.38;5263353;28;20472;-72
2022/11/22 00:05:23;;;;;;;13.10;6.73;;;;;;;5.75;100.00;98970.47;5262760;28;20083;-73
2022/11/22 00:07:55;;;;;;;15.00;5.77;;;;;;;5.75;100.00;98967.88;5261916;28;20112;-71
2022/11/22 00:10:26;;;;;;;13.57;6.00;;;;;;;5.80;100.00;98963.44;5262382;28;20025;-72
2022/11/22 00:12:58;;;;;;;12.83;6.03;;;;;;;5.79;100.00;98958.31;5262298;28;20029;-72
2022/11/22 00:15:29;;;;;;;12.23;5.63;;;;;;;5.78;100.00;98957.47;5261736;28;20049;-72
2022/11/22 00:18:00;;;;;;;20.50;5.77;;;;;;;5.76;100.00;98964.38;5261970;28;20033;-72
2022/11/22 00:20:33;;;;;;;12.87;6.60;;;;;;;5.78;100.00;98969.53;5262284;28;20068;-72
2022/11/22 00:23:04;;;;;;;12.60;6.85;;;;;;;5.78;100.00;98972.09;5261954;28;20048;-72
2022/11/22 00:25:35;;;;;;;18.43;5.53;;;;;;;5.79;100.00;98963.47;5262651;28;20111;-72
2022/11/22 00:28:07;;;;;;;14.13;6.03;;;;;;;5.78;100.00;98957.47;5266172;28;20090;-73
2022/11/22 00:30:38;;;;;;;12.97;5.97;;;;;;;5.79;100.00;98966.91;5265790;28;20090;-73
2022/11/22 00:33:09;;;;;;;15.97;5.97;;;;;;;5.73;100.00;98968.78;5266220;28;20032;-72
2022/11/22 00:35:41;;;;;;;11.07;5.93;;;;;;;5.67;100.00;98969.78;5264766;28;20094;-73
2022/11/22 00:38:12;;;;;;;13.90;6.27;;;;;;;5.70;100.00;98974.88;5264345;28;20104;-72
2022/11/22 00:40:44;;;;;;;10.07;6.17;;;;;;;5.68;100.00;98976.63;5248045;28;20033;-73
2022/11/22 00:43:15;;;;;;;16.57;6.10;;;;;;;5.63;100.00;98966.38;5265773;28;20032;-73
2022/11/22 00:45:46;;;;;;;16.37;5.70;;;;;;;5.61;100.00;98967.31;5264264;28;20036;-72
2022/11/22 00:48:18;;;;;;;14.10;6.20;;;;;;;5.53;100.00;98970.06;5264599;28;20037;-72
2022/11/22 00:50:49;;;;;;;17.90;6.60;;;;;;;5.45;100.00;98967.66;5265597;28;20044;-72
2022/11/22 00:53:21;;;;;;;12.07;5.37;;;;;;;5.35;100.00;98958.41;5265741;28;20043;-73
2022/11/22 00:55:53;;;;;;;10.73;5.05;;;;;;;5.32;100.00;98971.38;5265818;28;20032;-73
2022/11/22 00:58:24;;;;;;;18.53;5.83;;;;;;;5.30;100.00;98970.56;5265822;28;20032;-73
2022/11/22 01:00:55;;;;;;;16.87;6.03;;;;;;;5.23;100.00;98969.84;5272749;28;20040;-73
2022/11/22 01:03:27;;;;;;;13.37;5.20;;;;;;;5.14;100.00;98959.69;5286253;28;20032;-73
2022/11/22 01:05:58;;;;;;;14.27;5.20;;;;;;;5.11;100.00;98959.75;5286064;28;20025;-73
2022/11/22 01:08:29;;;;;;;11.90;5.30;;;;;;;5.05;100.00;98960.69;5284751;28;20032;-73
2022/11/22 01:11:01;;;;;;;11.97;5.70;;;;;;;5.06;100.00;98964.16;5286186;28;20090;-73
2022/11/22 01:13:33;;;;;;;13.07;4.77;;;;;;;5.00;100.00;98967.69;5285978;28;20491;-73
2022/11/22 01:16:07;;;;;;;14.83;4.97;;;;;;;4.99;100.00;98965.13;5286163;28;20045;-73
2022/11/22 01:18:38;;;;;;;14.40;5.20;;;;;;;4.96;100.00;98976.41;5285885;28;20626;-73
2022/11/22 01:21:11;;;;;;;13.70;5.67;;;;;;;4.92;100.00;98977.31;5286124;28;20037;-72
2022/11/22 01:23:42;;;;;;;12.40;5.20;;;;;;;4.90;100.00;98982.50;5285903;28;20042;-73
2022/11/22 01:26:13;;;;;;;16.73;6.07;;;;;;;4.90;100.00;98989.41;5285868;28;20032;-72
2022/11/22 01:28:45;;;;;;;15.67;5.63;;;;;;;4.87;100.00;98981.72;5285742;28;20056;-72
2022/11/22 01:31:16;;;;;;;14.30;5.47;;;;;;;4.88;100.00;98986.88;5286025;28;20128;-72
2022/11/22 01:33:47;;;;;;;16.03;5.17;;;;;;;4.86;100.00;98985.16;5285638;28;20032;-72
2022/11/22 01:36:19;;;;;;;14.90;5.10;;;;;;;4.82;100.00;98989.56;5267981;28;20032;-72
2022/11/22 01:38:51;;;;;;;16.60;6.00;;;;;;;4.77;100.00;98975.03;5284238;28;20041;-73
2022/11/22 01:41:22;;;;;;;14.20;5.03;;;;;;;4.78;100.00;98979.31;5285524;28;20089;-73
2022/11/22 01:43:53;;;;;;;20.53;5.40;;;;;;;4.74;100.00;98986.25;5285785;28;20540;-74
2022/11/22 01:46:36;;;;;;;20.43;5.73;;;;;;;4.78;100.00;98992.22;5285522;28;20053;-72
2022/11/22 01:49:29;;;;;;;;;;;;;;;4.81;100.00;98999.91;5286017;28;20411;-72
2022/11/22 01:52:06;;;;;;;16.70;4.63;;;;;;;4.78;100.00;98997.38;5285413;28;19920;-72
2022/11/22 01:54:41;;;;;;;22.50;5.30;;;;;;;4.79;100.00;99002.50;5285693;28;20024;-72
2022/11/22 01:57:19;;;;;;;22.38;5.65;;;;;;;4.78;100.00;99002.53;5285636;28;20129;-72
2022/11/22 01:59:59;;;;;;;18.98;5.10;;;;;;;4.78;100.00;99000.78;5285515;28;20036;-73
2022/11/22 02:02:30;;;;;;;24.13;5.28;;;;;;;4.81;100.00;99010.22;5285396;28;20039;-73
2022/11/22 02:05:09;;;;;;;20.83;4.93;;;;;;;4.84;100.00;99011.00;5285564;28;20413;-73
2022/11/22 02:07:51;;;;;;;21.33;4.68;;;;;;;4.84;100.00;99007.59;5284991;28;20031;-72
2022/11/22 02:10:26;;;;;;;18.63;4.13;;;;;;;4.82;100.00;99009.38;5285122;28;20028;-73
2022/11/22 02:12:59;;;;;;;19.88;4.50;;;;;;;4.83;100.00;99011.91;5284914;28;20028;-73
2022/11/22 02:15:30;;;;;;;23.67;4.85;;;;;;;4.84;100.00;99011.00;5284950;28;20051;-73
2022/11/22 02:18:02;;;;;;;20.00;5.40;;;;;;;4.84;100.00;99008.44;5285017;28;20037;-73
2022/11/22 02:20:34;;;;;;;17.77;4.93;;;;;;;4.88;100.00;99017.84;5284699;28;20075;-73
2022/11/22 02:23:45;;;;;;;18.55;5.13;;;;;;;4.87;100.00;99012.69;5285072;28;20080;-73
2022/11/22 02:26:16;;;;;;;18.15;4.75;;;;;;;4.84;100.00;99016.19;5260863;28;20060;-73
2022/11/22 02:28:51;;;;;;;15.63;4.70;;;;;;;4.81;100.00;99010.22;5284583;28;20447;-73
2022/11/22 02:31:44;;;;;;;17.88;5.15;;;;;;;4.82;100.00;99017.09;5283269;28;20481;-73
2022/11/22 02:34:16;;;;;;;16.75;4.28;;;;;;;4.75;100.00;99024.09;5284567;28;20033;-73
2022/11/22 02:36:50;;;;;;;18.67;4.87;;;;;;;4.71;100.00;99031.03;5284469;28;20033;-73
2022/11/22 02:39:29;;;;;;;15.57;4.22;;;;;;;4.71;100.00;99023.28;5284085;28;20020;-73
2022/11/22 02:42:01;;;;;;;20.25;4.63;;;;;;;4.68;100.00;99022.50;5284270;28;20038;-73
2022/11/22 02:44:33;;;;;;;22.17;4.47;;;;;;;4.66;100.00;99021.69;5284699;28;20032;-73
2022/11/22 02:47:04;;;;;;;18.92;5.32;;;;;;;4.64;100.00;99031.19;5266464;28;20079;-73
2022/11/22 02:49:36;;;;;;;13.73;4.13;;;;;;;4.62;100.00;99031.22;5282752;28;20033;-72
2022/11/22 02:52:07;;;;;;;20.00;4.40;;;;;;;4.62;100.00;99027.75;5282816;28;20029;-73
2022/11/22 02:54:39;;;;;;;18.20;4.87;;;;;;;4.61;100.00;99033.81;5283962;28;20193;-73
2022/11/22 02:57:10;;;;;;;13.60;5.77;;;;;;;4.54;100.00;99033.03;5265318;28;20033;-73
2022/11/22 02:59:42;;;;;;;20.33;5.97;;;;;;;4.54;100.00;99040.78;5261726;28;20033;-74
2022/11/22 03:02:13;;;;;;;14.80;4.00;;;;;;;4.48;100.00;99031.44;5261602;28;20033;-73
2022/11/22 03:04:44;;;;;;;27.80;5.60;;;;;;;4.44;100.00;99032.34;5261715;28;20040;-73
2022/11/22 03:07:17;;;;;;;20.17;5.10;;;;;;;4.42;100.00;99025.50;5262980;28;20037;-72
2022/11/22 03:09:48;;;;;;;19.75;4.80;;;;;;;4.34;100.00;99021.31;5262600;28;20021;-73
2022/11/22 03:12:19;;;;;;;17.73;4.53;;;;;;;4.37;100.00;99035.91;5262980;28;20033;-73
2022/11/22 03:14:51;;;;;;;18.37;4.33;;;;;;;4.35;100.00;99042.81;5263131;28;20099;-73
2022/11/22 03:17:22;;;;;;;16.40;4.40;;;;;;;4.28;100.00;99044.66;5262664;28;20078;-73
2022/11/22 03:19:53;;;;;;;25.57;4.93;;;;;;;4.28;100.00;99060.13;5261591;28;20123;-73
2022/11/22 03:22:25;;;;;;;24.30;4.67;;;;;;;4.26;100.00;99050.69;5261215;28;20098;-72
2022/11/22 03:24:56;;;;;;;16.60;4.30;;;;;;;4.22;100.00;99057.63;5262487;28;20032;-72
2022/11/22 03:27:28;;;;;;;24.80;5.97;;;;;;;4.15;100.00;99056.00;5262492;28;20033;-73
2022/11/22 03:29:59;;;;;;;24.20;4.50;;;;;;;4.07;100.00;99055.25;5262041;28;20039;-73
2022/11/22 03:32:30;;;;;;;19.37;4.20;;;;;;;4.14;100.00;99052.59;5262311;28;20033;-73
2022/11/22 03:35:02;;;;;;;19.33;5.37;;;;;;;4.12;100.00;99053.47;5244679;28;20037;-73
2022/11/22 03:37:33;;;;;;;16.30;5.93;;;;;;;4.06;100.00;99051.84;5261453;28;20037;-77
2022/11/22 03:40:05;;;;;;;24.30;5.17;;;;;;;4.00;100.00;99055.34;5261411;28;20417;-73
2022/11/22 03:42:37;;;;;;;23.90;6.45;;;;;;;3.95;100.00;99056.28;5262364;28;20054;-73
2022/11/22 03:45:08;;;;;;;19.83;6.10;;;;;;;3.92;100.00;99053.75;5262466;28;20661;-73
2022/11/22 03:47:40;;;;;;;44.97;7.67;;;;;;;3.89;100.00;99062.38;5244667;28;20041;-73
2022/11/22 03:50:11;;;;;;;19.83;4.40;;;;;;;3.87;100.00;99053.81;5262397;28;20433;-72
2022/11/22 03:52:43;;;;;;;21.90;5.50;;;;;;;3.88;100.00;99062.38;5262295;28;20067;-72
2022/11/22 03:55:14;;;;;;;17.53;4.23;;;;;;;3.87;100.00;99061.53;5262482;28;20037;-72
2022/11/22 03:57:46;;;;;;;22.80;4.73;;;;;;;3.82;100.00;99063.34;5261437;28;20526;-72
2022/11/22 04:00:17;;;;;;;15.97;5.13;;;;;;;3.82;100.00;99065.91;5261533;28;20044;-72
2022/11/22 04:02:49;;;;;;;24.13;5.67;;;;;;;3.79;100.00;99068.53;5266783;28;20036;-72
2022/11/22 04:05:20;;;;;;;16.30;4.63;;;;;;;3.74;100.00;99054.84;5266525;28;20044;-73
2022/11/22 04:07:54;;;;;;;21.40;4.70;;;;;;;3.72;100.00;99062.59;5265422;28;20499;-72
2022/11/22 04:10:26;;;;;;;23.80;4.93;;;;;;;3.68;100.00;99060.09;5265134;28;20025;-72
2022/11/22 04:12:58;;;;;;;20.97;5.03;;;;;;;3.65;100.00;99066.13;5266666;28;20048;-72
2022/11/22 04:15:29;;;;;;;19.08;4.50;;;;;;;3.63;100.00;99071.28;5266876;28;20186;-74
2022/11/22 04:18:01;;;;;;;16.60;4.57;;;;;;;3.60;100.00;99078.22;5266348;28;20123;-72
2022/11/22 04:23:24;;;;;;;18.67;5.15;;;;;;;3.60;100.00;99101.41;5266239;28;20395;-73
2022/11/22 04:25:56;;;;;;;20.30;5.30;;;;;;;3.59;100.00;99103.13;5266264;28;20373;-73
2022/11/22 04:28:27;;;;;;;28.00;5.37;;;;;;;3.54;100.00;99098.88;5266138;28;20076;-73
2022/11/22 04:33:48;;;;;;;21.73;5.10;;;;;;;3.49;100.00;99080.06;5266479;28;20396;-72
2022/11/22 04:36:20;;;;;;;14.87;3.60;;;;;;;3.45;100.00;99087.81;5266041;28;20033;-73
2022/11/22 04:38:51;;;;;;;18.87;5.33;;;;;;;3.43;100.00;99092.13;5264333;28;20075;-73
2022/11/22 04:41:22;;;;;;;18.27;4.67;;;;;;;3.42;100.00;99080.13;5264950;28;20557;-73
2022/11/22 04:46:44;;;;;;;20.33;4.30;;;;;;;3.35;100.00;99087.91;5266193;28;20427;-72
2022/11/22 04:49:15;;;;;;;12.60;3.60;;;;;;;3.32;100.00;99087.94;5265878;28;20037;-72
2022/11/22 04:54:36;;;;;;;18.40;3.90;;;;;;;3.28;100.00;99090.59;5265715;28;20033;-72
2022/11/22 04:57:08;;;;;;;16.60;4.87;;;;;;;3.25;100.00;99103.50;5264369;28;20033;-73
2022/11/22 04:59:39;;;;;;;26.37;5.40;;;;;;;3.24;100.00;99099.19;5265613;28;20037;-73
2022/11/22 05:02:10;;;;;;;19.80;5.47;;;;;;;3.22;100.00;99100.06;5265561;28;20029;-74
2022/11/22 05:04:42;;;;;;;19.73;5.37;;;;;;;3.19;100.00;99100.09;5265459;28;20032;-73
2022/11/22 05:07:13;;;;;;;16.83;3.80;;;;;;;3.15;100.00;99108.75;5265681;28;20056;-73
2022/11/22 05:09:44;;;;;;;12.90;3.63;;;;;;;3.13;100.00;99110.50;5246933;28;20029;-73
2022/11/22 05:12:16;;;;;;;19.70;6.07;;;;;;;3.13;100.00;99106.19;5264940;28;20082;-74
2022/11/22 05:14:47;;;;;;;15.17;5.00;;;;;;;3.08;100.00;99105.38;5263822;28;20048;-74
2022/11/22 05:17:18;;;;;;;15.90;3.77;;;;;;;3.09;100.00;99107.94;5265388;28;20068;-73
2022/11/22 05:19:50;;;;;;;19.40;4.20;;;;;;;3.08;100.00;99108.78;5263996;28;20040;-73
2022/11/22 05:23:53;;;;;;;15.03;4.43;;;;;;;3.09;100.00;99099.34;5263949;28;20037;-72
2022/11/22 05:25:12;;;;;;;19.42;4.78;;;;;;;3.14;100.00;99107.03;5264997;28;20036;-72
2022/11/22 05:27:44;;;;;;;19.87;3.97;;;;;;;3.12;100.00;99103.63;5265172;28;20032;-72
2022/11/22 05:30:15;;;;;;;14.50;3.70;;;;;;;3.06;100.00;99100.25;5265002;28;20164;-72
2022/11/22 05:32:46;;;;;;;14.33;3.93;;;;;;;2.99;100.00;99096.00;5263543;28;20048;-70
2022/11/22 05:35:18;;;;;;;19.87;7.23;;;;;;;3.02;100.00;99090.81;5265077;28;20472;-72
2022/11/22 05:37:49;;;;;;;20.37;4.60;;;;;;;3.03;100.00;99094.28;5264627;28;20491;-72
2022/11/22 05:40:20;;;;;;;11.93;3.77;;;;;;;3.02;100.00;99097.72;5264984;28;20037;-72
2022/11/22 05:42:52;;;;;;;13.40;4.40;;;;;;;3.05;100.00;99098.53;5263487;28;20037;-72
2022/11/22 05:45:23;;;;;;;17.20;4.13;;;;;;;3.00;100.00;99095.13;5264419;28;20479;-72
2022/11/22 05:47:56;;;;;;;14.80;3.90;;;;;;;2.97;100.00;99095.16;5264845;28;20476;-72
2022/11/22 05:50:27;;;;;;;11.13;3.45;;;;;;;2.99;100.00;99105.44;5263918;28;20037;-72
2022/11/22 05:53:02;;;;;;;22.17;4.30;;;;;;;2.97;100.00;99102.88;5264595;28;20039;-72
2022/11/22 05:55:34;;;;;;;18.10;3.70;;;;;;;2.95;100.00;99098.59;5264963;28;20480;-72
2022/11/22 05:58:05;;;;;;;18.93;4.20;;;;;;;2.95;100.00;99096.03;5264435;28;20082;-71
2022/11/22 06:00:36;;;;;;;19.07;3.23;;;;;;;2.94;100.00;99084.91;5264589;28;20033;-72
2022/11/22 06:03:08;;;;;;;18.47;4.33;;;;;;;2.99;100.00;99082.28;5264275;28;20025;-72
2022/11/22 06:05:39;;;;;;;11.80;3.87;;;;;;;2.94;100.00;99089.19;5264501;28;20041;-72
2022/11/22 06:08:12;;;;;;;21.77;5.83;;;;;;;2.86;100.00;99091.84;5263923;28;20039;-73
2022/11/22 06:10:43;;;;;;;21.58;5.70;;;;;;;2.88;100.00;99096.13;5263929;28;20025;-71
2022/11/22 06:13:14;;;;;;;14.40;4.10;;;;;;;2.86;100.00;99100.41;5263100;28;20029;-71
2022/11/22 06:15:46;;;;;;;17.27;3.93;;;;;;;2.83;100.00;99097.84;5264044;28;20131;-71
2022/11/22 06:18:17;;;;;;;19.43;4.97;;;;;;;2.79;100.00;99097.91;5246460;28;20079;-73
2022/11/22 06:20:48;;;;;;;20.60;5.67;;;;;;;2.82;100.00;99097.88;5262680;28;20106;-72
2022/11/22 06:23:20;;;;;;;20.27;3.77;;;;;;;2.83;100.00;99103.00;5263332;28;20029;-71
2022/11/22 06:25:58;;;;;;;19.40;4.37;;;;;;;2.80;100.00;99107.31;5264018;28;20033;-72
2022/11/22 06:28:31;;;;;;;17.50;4.05;;;;;;;2.80;100.00;99112.47;5263781;28;20396;-71
2022/11/22 06:31:08;;;;;;;19.98;4.00;;;;;;;2.77;100.00;99112.50;5263716;28;20059;-71
2022/11/22 06:33:40;;;;;;;16.17;4.45;;;;;;;2.76;100.00;99111.66;5263782;28;20025;-71
2022/11/22 06:36:14;;;;;;;15.27;4.93;;;;;;;2.77;100.00;99108.22;5263376;28;20064;-70
2022/11/22 06:38:46;;;;;;;17.00;4.18;;;;;;;2.76;100.00;99114.22;5263101;28;20451;-72
2022/11/22 06:41:23;;;;;;;15.50;3.80;;;;;;;2.79;100.00;99115.94;5263285;28;20133;-71
2022/11/22 06:43:57;;;;;;;20.25;4.47;;;;;;;2.77;100.00;99121.09;5263138;28;20290;-71
2022/11/22 06:46:28;;;;;;;13.93;5.03;;;;;;;2.74;100.00;99121.94;5263486;28;20479;-71
2022/11/22 06:49:00;;;;;;;17.57;4.10;;;;;;;2.70;100.00;99116.84;5262944;28;20128;-72
2022/11/22 06:51:31;;;;;;;14.23;4.00;;;;;;;2.72;100.00;99113.41;5263327;28;20033;-72
2022/11/22 06:54:03;;;;;;;24.30;3.23;;;;;;;2.77;100.00;99126.22;5263315;28;20388;-72
2022/11/22 06:56:39;;;;;;;15.77;4.13;;;;;;;2.86;100.00;99123.56;5263267;28;20194;-72
2022/11/22 06:59:10;;;;;;;14.75;3.88;;;;;;;2.93;100.00;99134.69;5261953;28;20041;-71
2022/11/22 07:01:42;;;;;;;17.67;4.70;;;;;;;3.00;100.00;99128.59;5263386;28;20477;-71
2022/11/22 07:04:13;;;;;;;15.73;4.03;;;;;;;3.10;100.00;99137.94;5262920;28;20130;-72
2022/11/22 07:06:46;;;;;;;22.23;4.13;;;;;;;3.19;100.00;99142.19;5244991;28;20043;-71
2022/11/22 07:09:17;;;;;;;21.25;3.70;;;;;;;3.23;100.00;99148.13;5262764;28;20037;-71
2022/11/22 07:11:48;;;;;;;16.53;4.50;;;;;;;3.30;100.00;99144.66;5263291;28;20029;-70
2022/11/22 07:14:21;;;;;;;18.02;4.28;;;;;;;3.34;100.00;99146.31;5262847;28;20053;-69
2022/11/22 07:16:52;;;;;;;17.30;3.83;;;;;;;3.37;100.00;99150.59;5263003;28;20037;-69
2022/11/22 07:19:24;;;;;;;17.20;3.57;;;;;;;3.43;100.00;99155.66;5262758;28;20037;-70
2022/11/22 07:21:55;;;;;;;13.10;3.47;;;;;;;3.45;100.00;99146.22;5263072;28;20079;-71
2022/11/22 07:24:27;;;;;;;13.47;3.63;;;;;;;3.51;100.00;99147.88;5261647;28;20029;-71
2022/11/22 07:26:58;;;;;;;17.08;4.38;;;;;;;3.53;100.00;99148.72;5262706;28;20029;-72
2022/11/22 07:29:30;;;;;;;11.00;3.77;;;;;;;3.56;100.00;99140.94;5262368;28;20043;-70
2022/11/22 07:32:01;;;;;;;19.77;4.07;;;;;;;3.62;100.00;99152.06;5262427;28;20063;-69
2022/11/22 07:34:32;;;;;;;15.20;4.83;;;;;;;3.68;100.00;99155.44;5262041;28;20041;-70
2022/11/22 07:37:04;;;;;;;17.73;3.47;;;;;;;3.70;100.00;99158.84;5262345;28;20503;-70
2022/11/22 07:39:35;;;;;;;16.07;3.53;;;;;;;3.73;100.00;99154.50;5260713;28;20116;-70
2022/11/22 07:42:07;;;;;;;11.80;3.63;;;;;;;3.77;100.00;99163.91;5262227;28;20056;-71
2022/11/22 07:44:38;;;;;;;14.50;3.90;;;;;;;3.79;100.00;99153.59;5262300;28;20035;-71
2022/11/22 07:47:09;;;;;;;21.40;5.13;;;;;;;3.81;100.00;99151.84;5262162;28;20084;-71
2022/11/22 07:49:41;;;;;;;12.37;3.53;;;;;;;3.88;100.00;99162.91;5262173;28;20025;-70
2022/11/22 07:52:12;;;;;;;14.80;4.03;;;;;;;3.92;100.00;99159.44;5261833;28;20033;-70
2022/11/22 07:54:43;;;;;;;15.37;3.83;;;;;;;3.96;100.00;99159.41;5261985;28;20031;-70
2022/11/22 07:57:15;;;;;;;9.97;3.30;;;;;;;3.99;100.00;99154.22;5261853;28;20029;-71
2022/11/22 07:59:46;;;;;;;15.77;4.73;;;;;;;4.06;100.00;99156.69;5262374;28;20041;-70
2022/11/22 08:02:18;;;;;;;13.50;4.43;;;;;;;4.08;100.00;99153.22;5262176;28;20051;-71
2022/11/22 08:04:50;;;;;;;17.17;3.77;;;;;;;4.12;100.00;99154.03;5262198;28;20028;-70
2022/11/22 08:07:21;;;;;;;14.00;3.30;;;;;;;4.11;100.00;99155.78;5262113;28;20029;-71
2022/11/22 08:09:52;;;;;;;13.27;3.37;;;;;;;4.15;100.00;99156.56;5261880;28;20329;-71
2022/11/22 08:12:24;;;;;;;12.73;3.80;;;;;;;4.19;100.00;99160.84;5261814;28;20064;-71
2022/11/22 08:14:55;;;;;;;13.33;4.03;;;;;;;4.22;100.00;99160.81;5261723;28;20053;-71
2022/11/22 08:17:26;;;;;;;14.20;4.33;;;;;;;4.26;100.00;99167.59;5261761;28;20036;-70
2022/11/22 08:19:58;;;;;;;10.47;3.33;;;;;;;4.28;100.00;99158.16;5262159;28;20032;-70
2022/11/22 08:22:29;;;;;;;7.53;2.60;;;;;;;4.31;100.00;99160.66;5262079;28;20029;-70
2022/11/22 08:25:01;;;;;;;10.30;3.93;;;;;;;4.33;100.00;99169.25;5261820;28;20040;-70
2022/11/22 08:27:32;;;;;;;13.17;2.97;;;;;;;4.33;100.00;99164.09;5260524;28;20484;-70
2022/11/22 08:30:04;;;;;;;11.17;3.70;;;;;;;4.35;100.00;99170.06;5261639;28;20112;-71
2022/11/22 08:32:35;;;;;;;12.53;2.80;;;;;;;4.41;100.00;99173.44;5261844;28;20048;-71
2022/11/22 08:35:07;;;;;;;14.43;3.33;;;;;;;4.44;100.00;99173.41;5261736;28;20079;-70
2022/11/22 08:37:38;;;;;;;8.57;2.83;;;;;;;4.45;100.00;99177.69;5261736;28;20476;-71
2022/11/22 08:40:10;;;;;;;11.70;3.37;;;;;;;4.48;100.00;99172.50;5261182;28;20041;-71
2022/11/22 08:42:42;;;;;;;14.93;3.27;;;;;;;4.53;100.00;99176.69;5261593;28;20049;-71
2022/11/22 08:45:13;;;;;;;13.10;3.53;;;;;;;4.59;100.00;99178.34;5261748;28;20060;-71
2022/11/22 08:47:44;;;;;;;11.37;3.20;;;;;;;4.62;100.00;99182.59;5264358;28;20040;-71
2022/11/22 08:50:17;;;;;;;9.00;2.87;;;;;;;4.71;100.00;99175.56;5265480;28;20041;-71
2022/11/22 08:52:48;;;;;;;11.30;2.80;;;;;;;4.81;100.00;99184.03;5265513;28;20029;-71
2022/11/22 08:55:20;;;;;;;12.90;2.93;;;;;;;4.86;100.00;99178.81;5265267;28;20152;-71
2022/11/22 08:57:51;;;;;;;16.33;3.10;;;;;;;4.91;100.00;99177.88;5265554;28;20071;-71
2022/11/22 09:00:22;;;;;;;7.63;2.80;;;;;;;4.96;100.00;99184.69;5265312;28;20039;-71
2022/11/22 09:02:54;;;;;;;12.67;3.10;;;;;;;4.93;100.00;99177.84;5265518;28;20033;-71
2022/11/22 09:05:25;;;;;;;8.57;2.37;;;;;;;4.93;100.00;99183.84;5264012;28;20081;-71
2022/11/22 09:07:57;;;;;;;13.73;2.97;;;;;;;4.97;100.00;99178.66;5265276;28;20029;-71
2022/11/22 09:10:28;;;;;;;9.23;2.88;;;;;;;4.99;100.00;99188.09;5263440;28;20029;-71
2022/11/22 09:13:00;;;;;;;10.63;2.63;;;;;;;5.02;100.00;99188.00;5264444;28;20055;-71
2022/11/22 09:15:31;;;;;;;11.93;2.83;;;;;;;5.04;100.00;99188.88;5264815;28;20049;-71
2022/11/22 09:18:03;;;;;;;9.67;2.60;;;;;;;5.08;100.00;99193.09;5264094;28;20033;-71
2022/11/22 09:20:34;;;;;;;9.53;2.70;;;;;;;5.15;100.00;99205.91;5263891;28;20050;-71
2022/11/22 09:23:05;;;;;;;8.57;2.73;;;;;;;5.15;100.00;99199.00;5264911;28;20094;-71
2022/11/22 09:25:37;;;;;;;14.47;3.30;;;;;;;5.22;100.00;99186.88;5264817;28;20033;-71
2022/11/22 09:28:08;;;;;;;11.93;3.23;;;;;;;5.32;100.00;99196.16;5264875;28;20147;-71
2022/11/22 09:30:39;;;;;;;11.53;2.97;;;;;;;5.35;99.93;99198.69;5264741;28;20044;-71
2022/11/22 09:33:11;;;;;;;9.27;2.73;;;;;;;5.40;99.54;99196.88;5263722;28;20078;-70
2022/11/22 09:35:42;;;;;;;9.73;3.13;;;;;;;5.48;99.22;99202.75;5264804;28;20072;-71
2022/11/22 09:38:14;;;;;;;8.03;2.57;;;;;;;5.51;98.86;99201.03;5262969;28;20032;-71
2022/11/22 09:40:46;;;;;;;11.17;3.43;;;;;;;5.59;98.97;99199.16;5263256;28;20059;-71
2022/11/22 09:43:40;;;;;;;9.27;3.03;;;;;;;5.61;98.33;99192.22;5264510;28;20520;-70
2022/11/22 09:46:25;;;;;;;9.85;2.50;;;;;;;5.73;97.59;99194.59;5264493;28;20140;-71
2022/11/22 09:49:08;;;;;;;11.43;3.80;;;;;;;5.78;97.67;99189.31;5264389;28;20032;-70
2022/11/22 09:51:46;;;;;;;9.45;2.67;;;;;;;5.76;96.68;99202.25;5264170;28;20035;-71
2022/11/22 09:54:57;;;;;;;9.43;3.05;;;;;;;5.94;96.31;99202.78;5263421;28;20029;-71
2022/11/22 09:57:47;;;;;;;9.88;2.45;;;;;;;5.94;95.79;99218.31;5233170;28;20116;-71
2022/11/22 10:00:25;;;;;;;13.77;3.22;;;;;;;5.83;95.40;99192.69;5262601;28;20029;-73
2022/11/22 10:03:07;;;;;;;10.38;2.60;;;;;;;5.83;96.06;99200.44;5263241;28;20033;-71
2022/11/22 10:05:50;;;;;;;6.63;1.88;;;;;;;5.80;95.48;99198.75;5264182;28;20025;-71
2022/11/22 10:08:27;;;;;;;;;;;;;;;5.82;95.93;99198.72;5264206;28;20032;-70
2022/11/22 10:10:59;;;;;;;9.80;2.22;;;;;;;5.68;96.39;99201.53;5263944;28;19967;-70
2022/11/22 10:13:39;;;;;;;9.20;3.72;;;;;;;5.68;97.29;99208.47;5263941;28;20480;-71
2022/11/22 10:16:43;;;;;;;8.95;2.58;;;;;;;5.72;97.15;99200.63;5263879;28;20041;-70
2022/11/22 10:19:19;;;;;;;5.88;2.20;;;;;;;5.71;97.33;99195.47;5252155;28;20041;-71
2022/11/22 10:21:51;;;;;;;11.77;3.75;;;;;;;5.74;97.66;99209.19;5264740;28;20045;-71
2022/11/22 10:24:22;;;;;;;6.87;2.20;;;;;;;5.70;97.20;99191.19;5264981;28;20040;-70
2022/11/22 10:26:57;;;;;;;7.70;2.90;;;;;;;5.65;97.69;99202.47;5263765;28;20028;-71
2022/11/22 10:29:41;;;;;;;7.85;2.00;;;;;;;5.60;98.37;99196.53;5262530;28;20037;-71
2022/11/22 10:32:32;;;;;;;6.38;1.88;;;;;;;5.64;99.17;99194.75;5263737;28;20107;-72
2022/11/22 10:35:12;;;;;;;8.70;2.72;;;;;;;5.75;98.58;99187.66;5263863;28;20029;-70
2022/11/22 10:37:56;;;;;;;7.38;2.97;;;;;;;5.83;98.46;99183.19;5263382;28;20488;-71
2022/11/22 10:40:48;;;;;;;7.18;2.10;;;;;;;5.97;97.71;99182.06;5263208;28;20052;-71
2022/11/22 10:43:35;;;;;;;10.82;4.28;;;;;;;6.02;96.74;99181.13;5263836;28;20029;-71
2022/11/22 10:46:15;;;;;;;6.13;2.17;;;;;;;6.11;96.53;99176.63;5262996;28;20033;-71
2022/11/22 10:49:04;;;;;;;5.63;2.22;;;;;;;6.29;97.23;99170.22;5263401;28;20032;-71
2022/11/22 10:52:08;;;;;;;9.32;2.42;;;;;;;6.34;95.26;99178.72;5263305;28;20036;-71
2022/11/22 10:54:51;;;;;;;7.28;2.22;;;;;;;6.36;95.10;99170.06;5263098;28;20040;-71
2022/11/22 10:57:31;;;;;;;8.48;2.35;;;;;;;6.38;94.12;99176.06;5263459;28;20025;-71
2022/11/22 11:00:23;;;;;;;5.25;2.00;;;;;;;6.45;94.12;99166.41;5263085;28;20071;-71
2022/11/22 11:03:14;;;;;;;7.47;2.73;;;;;;;6.41;94.16;99164.78;5262970;28;20071;-71
2022/11/22 11:05:52;;;;;;;4.10;2.03;;;;;;;6.36;93.50;99171.81;5262931;28;20561;-70
2022/11/22 11:08:46;;;;;;;6.10;1.92;;;;;;;6.39;93.72;99161.38;5262664;28;20036;-72
2022/11/22 11:11:18;;;;;;;7.22;2.28;;;;;;;6.33;93.85;99161.53;5262485;28;20040;-71
2022/11/22 11:13:52;;;;;;;;;;;;;;;6.43;93.62;99154.41;5263369;28;20147;-71
2022/11/22 11:16:29;;;;;;;7.22;1.77;;;;;;;6.33;93.42;99152.00;5262628;28;19921;-71
2022/11/22 11:19:04;;;;;;;5.43;2.15;;;;;;;6.41;93.86;99149.25;5262690;28;20032;-71
2022/11/22 11:21:35;;;;;;;5.38;1.80;;;;;;;6.35;92.84;99152.81;5262775;28;20059;-70
2022/11/22 11:24:15;;;;;;;7.33;2.30;;;;;;;6.40;93.38;99150.13;5264382;28;20029;-70
2022/11/22 11:26:54;;;;;;;5.75;1.70;;;;;;;6.45;93.54;99148.28;5264226;28;20021;-69
2022/11/22 11:29:42;;;;;;;3.10;1.73;;;;;;;6.46;92.84;99131.03;5262483;28;20445;-71
2022/11/22 11:32:19;;;;;;;3.40;1.55;;;;;;;6.53;92.46;99137.78;5262646;28;20029;-70
2022/11/22 11:35:03;;;;;;;4.22;1.58;;;;;;;6.59;92.21;99135.06;5262565;28;20048;-70
2022/11/22 11:37:36;;;;;;;3.13;1.73;;;;;;;6.53;90.61;99133.44;5262442;28;20032;-71
2022/11/22 11:40:29;;;;;;;4.30;1.85;;;;;;;6.66;91.56;99128.00;5261911;28;20032;-71
2022/11/22 11:43:21;;;;;;;2.55;1.63;;;;;;;6.65;91.01;99131.44;5262613;28;20029;-71
2022/11/22 11:45:52;;;;;;;3.72;1.35;;;;;;;6.60;90.14;99131.59;5262163;28;20021;-70
2022/11/22 11:48:37;;;;;;;4.03;1.67;;;;;;;6.59;89.86;99129.88;5262203;28;20439;-71
2022/11/22 11:51:20;;;;;;;1.65;1.05;;;;;;;6.64;89.59;99134.94;5262193;28;20049;-71
2022/11/22 11:54:02;;;;;;;4.78;1.45;;;;;;;6.63;89.45;99133.22;5262567;28;20032;-71
2022/11/22 11:56:39;;;;;;;4.15;1.48;;;;;;;6.64;88.79;99135.78;5262306;28;20448;-71
2022/11/22 11:59:19;;;;;;;4.25;1.45;;;;;;;6.71;89.33;99128.72;5262432;28;20045;-70
2022/11/22 12:01:56;;;;;;;4.07;1.50;;;;;;;6.72;88.94;99143.38;5262167;28;20037;-70
2022/11/22 12:04:34;;;;;;;4.00;1.33;;;;;;;6.75;88.27;99138.13;5262152;28;20021;-71
2022/11/22 12:07:22;;;;;;;3.95;1.98;;;;;;;6.82;87.64;99131.91;5261854;28;20037;-71
2022/11/22 12:09:54;;;;;;;1.45;1.00;;;;;;;6.84;87.29;99132.75;5261949;28;20037;-70
2022/11/22 12:12:31;;;;;;;1.98;1.10;;;;;;;6.88;88.32;99134.34;5262027;28;20033;-71